Latest Coastal Weather Observations for Horn Island

IDQ60701

Issued at 10:51 am EST Saturday 31 January 2015 (issued every 10 minutes, with the page automatically refreshed every 10 minutes)

About coastal observations | Map of coastal stations | Coastal observations for QLD | Marine services | Other Formats
Station Details ID: 027058 Name: HORN ISLAND Lat: -10.58 Lon: 142.29 Height: 4.0 m
Data from the previous 72 hours. | See also: Recent months at Horn Island
Date/Time
EST
Temp

°C
Wind Pressure Rain
since 9am
mm
Weather Cloud Vis
km
Sea
Height
m
Swell
Dir
 
Speed
knots
Gust
knots
hPa Trend Height
m
Period
s
Dir
31/10:30am 29.4 NNW 15 22 1009.4 - 0.0 - Partly cloudy 10 - - - -
31/10:27am 29.2 NNW 15 22 1009.4 - 0.0 - Partly cloudy 10 - - - -
31/10:01am 29.0 NNW 15 19 1009.4 - 0.0 - Partly cloudy 10 - - - -
31/10:00am 29.0 NNW 15 19 1009.4 - 0.0 - Partly cloudy 10 - - - -
31/09:30am 28.8 NNW 12 17 1009.6 - 0.0 - Partly cloudy 10 - - - -
31/09:00am 29.5 NW 9 12 1009.3 - 0.2 - Cloudy 10 - - - -
31/08:30am 29.0 WNW 8 11 1009.3 - 0.2 - Partly cloudy 10 - - - -
31/08:00am 28.5 WNW 7 12 1009.0 - 0.2 - Partly cloudy 10 - - - -
31/07:30am 28.0 WNW 5 8 1008.6 - 0.2 - Partly cloudy 10 - - - -
31/07:00am 27.4 WNW 5 7 1008.2 - 0.2 - Partly cloudy 10 - - - -
31/06:30am 27.1 WNW 5 8 1007.9 - 0.2 - - 10 - - - -
31/06:00am 27.0 WNW 4 6 1007.7 - 0.2 - Cloudy 10 - - - -
31/05:30am 27.2 W 5 7 1007.4 - 0.2 - - 10 - - - -
31/05:00am 27.3 W 6 11 1007.2 - 0.2 - Partly cloudy 10 - - - -
31/04:30am 27.3 W 6 8 1007.2 - 0.2 - Partly cloudy 10 - - - -
31/04:00am 27.2 W 6 9 1007.2 - 0.2 - - 10 - - - -
31/03:30am 27.5 W 7 11 1007.2 - 0.2 - Partly cloudy 10 - - - -
31/03:00am 27.4 W 7 10 1007.2 - 0.2 - Cloudy 10 - - - -
31/02:30am 27.5 W 7 11 1007.5 - 0.2 - Partly cloudy 10 - - - -
31/02:00am 27.3 W 5 8 1007.8 - 0.2 - - 9 - - - -
31/01:30am 27.4 W 7 11 1008.1 - 0.0 - - 10 - - - -
31/01:00am 27.3 W 5 10 1008.3 - 0.0 - - 10 - - - -
31/12:30am 27.3 W 5 6 1008.6 - 0.0 - Partly cloudy 10 - - - -
31/12:00am 27.5 W 6 9 1009.0 - 0.0 - - 10 - - - -
 
Date/Time
EST
Temp

°C
Wind Pressure Rain
since 9am
mm
Weather Cloud Vis
km
Sea
Height
m
Swell
Dir
 
Speed
knots
Gust
knots
hPa Trend Height
m
Period
s
Dir
30/11:30pm 27.5 WNW 7 10 1009.0 - 0.0 - - 10 - - - -
30/11:00pm 27.5 WNW 6 9 1009.1 - 0.0 - - 10 - - - -
30/10:30pm 27.8 WNW 9 12 1009.2 - 0.0 - - 10 - - - -
30/10:00pm 27.7 NW 9 15 1009.3 - 0.0 - Partly cloudy 10 - - - -
30/09:30pm 27.8 W 8 13 1009.0 - 0.0 - - 10 - - - -
30/09:00pm 27.8 WNW 7 10 1008.6 - 0.0 - Cloudy 10 - - - -
30/08:30pm 28.1 W 10 15 1008.1 - 0.0 - Partly cloudy 10 - - - -
30/08:00pm 28.1 WNW 7 12 1007.7 - 0.0 - Partly cloudy 10 - - - -
30/07:30pm 28.0 W 7 11 1007.6 - 0.0 - Partly cloudy 7 - - - -
30/07:00pm 28.2 WNW 8 12 1007.1 - 0.0 - Partly cloudy 10 - - - -
30/06:30pm 28.6 WNW 7 11 1007.0 - 0.0 - Partly cloudy 10 - - - -
30/06:00pm 28.7 WNW 8 14 1006.5 - 0.0 - Cloudy 10 - - - -
30/05:30pm 29.5 W 9 13 1006.0 - 0.0 - Partly cloudy 10 - - - -
30/05:00pm 29.4 WNW 11 16 1005.8 - 0.0 - Partly cloudy 10 - - - -
30/04:30pm 29.3 W 11 16 1005.6 - 0.0 - Partly cloudy 10 - - - -
30/04:00pm 29.1 WNW 11 15 1005.5 - 0.0 - Partly cloudy 10 - - - -
30/03:30pm 29.0 WNW 11 18 1005.6 - 0.0 - Partly cloudy 10 - - - -
30/03:00pm 29.2 WNW 9 14 1005.9 - 0.0 - Cloudy 10 - - - -
30/02:30pm 28.9 WNW 11 16 1006.2 - 0.0 - Partly cloudy 10 - - - -
30/02:00pm 28.5 WNW 9 17 1006.6 - 0.0 - Partly cloudy 10 - - - -
30/01:30pm 27.8 WNW 9 13 1007.1 - 0.0 - - 10 - - - -
30/01:02pm 27.3 WNW 10 17 1007.5 - 0.0 - Partly cloudy 10 - - - -
30/01:00pm 27.2 WNW 10 17 1007.5 - 0.0 - Partly cloudy 10 - - - -
30/12:30pm 27.1 WNW 10 14 1008.1 - 0.0 - Partly cloudy 10 - - - -
30/12:00pm 27.5 NW 11 16 1008.3 - 0.0 - Cloudy 10 - - - -
30/11:52am 27.6 NW 10 18 1008.5 - 0.0 - Partly cloudy 10 - - - -
30/11:30am 27.5 NW 12 18 1008.7 - 0.0 - Partly cloudy 10 - - - -
30/11:09am 27.3 NW 10 16 1008.8 - 0.0 - Partly cloudy 10 - - - -
30/11:00am 27.1 NW 11 15 1008.8 - 0.0 - Partly cloudy 10 - - - -
30/10:39am 26.7 NW 12 18 1008.9 - 0.0 - Partly cloudy 10 - - - -
30/10:30am 26.7 NW 12 19 1009.1 - 0.0 - Partly cloudy 10 - - - -
30/10:00am 26.4 WNW 10 15 1009.1 - 0.0 - Partly cloudy 10 - - - -
30/09:30am 26.0 W 5 8 1008.8 - 0.0 - - 10 - - - -
30/09:00am 25.5 WNW 5 8 1008.9 - 9.2 - Cloudy 10 - - - -
30/08:52am 25.3 WNW 5 8 1009.0 - 9.2 - Partly cloudy 10 - - - -
30/08:30am 25.4 WNW 8 12 1008.8 - 9.2 - Partly cloudy 9 - - - -
30/08:01am 25.5 WNW 7 11 1008.8 - 9.2 - Partly cloudy 10 - - - -
30/08:00am 25.5 WNW 7 10 1008.8 - 9.2 - Partly cloudy 10 - - - -
30/07:30am 25.6 WNW 7 11 1008.5 - 9.2 - Partly cloudy 10 - - - -
30/07:00am 25.6 WNW 5 8 1008.0 - 9.0 - Partly cloudy 10 - - - -
30/06:30am 25.3 W 5 6 1007.9 - 9.0 - Partly cloudy 10 - - - -
30/06:00am 25.3 WNW 7 9 1006.9 - 8.6 - Cloudy 10 - - - -
30/05:39am 25.7 W 6 9 1006.9 - 8.4 - Partly cloudy 8 - - - -
30/05:30am 26.0 W 7 11 1006.6 - 8.2 - Partly cloudy 6 - - - -
30/05:00am 26.6 WSW 4 7 1006.4 - 4.8 - Partly cloudy 2 - - - -
30/04:56am 26.6 SW 2 7 1006.4 - 2.8 - Partly cloudy 5 - - - -
30/04:30am 26.5 CALM 0 3 1006.2 - 1.6 - Partly cloudy 10 - - - -
30/04:00am 27.0 W 3 4 1006.2 - 1.6 - Partly cloudy 10 - - - -
30/03:30am 27.3 W 4 7 1006.5 - 1.6 - Partly cloudy 10 - - - -
30/03:00am 27.5 W 6 11 1006.4 - 1.6 - - 10 - - - -
30/02:30am 27.4 W 7 11 1006.5 - 1.6 - - 10 - - - -
30/02:00am 27.3 W 6 9 1006.7 - 1.6 - Partly cloudy 10 - - - -
30/01:30am 27.0 WSW 4 5 1006.9 - 1.6 - Cloudy 10 - - - -
30/01:00am 27.2 W 4 7 1007.1 - 1.6 - Partly cloudy 10 - - - -
30/12:30am 27.0 W 5 6 1007.1 - 1.6 - Partly cloudy 10 - - - -
30/12:00am 27.3 W 5 7 1007.2 - 1.6 - Cloudy 10 - - - -
 
Date/Time
EST
Temp

°C
Wind Pressure Rain
since 9am
mm
Weather Cloud Vis
km
Sea
Height
m
Swell
Dir
 
Speed
knots
Gust
knots
hPa Trend Height
m
Period
s
Dir
29/11:30pm 27.3 W 4 5 1007.8 - 1.6 - Partly cloudy 10 - - - -
29/11:00pm 27.3 W 3 4 1008.0 - 1.6 - Partly cloudy 10 - - - -
29/10:30pm 27.4 WNW 3 5 1007.8 - 1.6 - Partly cloudy 10 - - - -
29/10:00pm 27.6 W 5 7 1007.5 - 1.6 - Partly cloudy 10 - - - -
29/09:30pm 27.7 W 6 9 1007.1 - 1.6 - Partly cloudy 10 - - - -
29/09:00pm 27.6 W 7 11 1006.8 - 1.6 - - 10 - - - -
29/08:30pm 27.6 WNW 9 13 1006.5 - 1.6 - - 10 - - - -
29/08:00pm 27.7 W 8 14 1006.3 - 1.6 - - 10 - - - -
29/07:30pm 27.7 W 9 14 1006.1 - 1.6 - - 10 - - - -
29/07:00pm 27.6 WNW 10 15 1006.0 - 1.6 - Partly cloudy 10 - - - -
29/06:30pm 27.7 WNW 10 15 1005.7 - 1.6 - Partly cloudy 10 - - - -
29/06:00pm 28.0 WNW 10 17 1005.3 - 1.6 - Cloudy 10 - - - -
29/05:30pm 27.8 WNW 9 14 1005.2 - 1.6 - Partly cloudy 10 - - - -
29/05:00pm 27.7 WNW 11 15 1004.6 - 1.6 - Partly cloudy 10 - - - -
29/04:30pm 27.6 NW 8 14 1003.9 - 1.6 - Partly cloudy 10 - - - -
29/04:00pm 28.4 NW 8 11 1003.6 - 1.4 - Partly cloudy 10 - - - -
29/03:30pm 28.6 WNW 8 12 1003.3 - 1.4 - - 10 - - - -
29/03:00pm 29.2 NW 10 15 1003.5 - 1.4 - Cloudy 10 - - - -
29/02:30pm 29.1 NW 11 16 1003.9 - 1.4 - Partly cloudy 10 - - - -
29/02:00pm 28.9 WNW 11 15 1004.5 - 1.4 - Partly cloudy 10 - - - -
29/01:30pm 28.9 WNW 11 16 1005.1 - 1.4 - Partly cloudy 10 - - - -
29/01:00pm 28.5 WNW 13 19 1005.9 - 1.4 - Partly cloudy 10 - - - -
29/12:30pm 29.1 W 12 18 1006.3 - 1.2 - Partly cloudy 10 - - - -
29/12:00pm 28.6 W 11 18 1007.0 - 1.2 - Cloudy 10 - - - -
29/11:30am 27.9 W 10 15 1007.4 - 1.2 - Partly cloudy 10 - - - -
29/11:08am 27.5 W 10 17 1007.6 - 1.2 - Partly cloudy 10 - - - -
29/11:00am 27.5 W 10 17 1007.6 - 1.2 - Partly cloudy 10 - - - -
29/10:30am 26.5 W 9 14 1007.4 - 1.2 - Partly cloudy 10 - - - -
29/10:17am 26.3 W 8 11 1007.3 - 1.2 - Partly cloudy 5 - - - -
29/10:16am 26.3 W 8 12 1007.3 - 1.2 - Partly cloudy 5 - - - -
29/10:00am 26.8 WNW 11 17 1007.2 - 0.2 - Partly cloudy 10 - - - -
29/09:30am 26.7 WNW 8 14 1007.4 - 0.2 - Partly cloudy 10 - - - -
29/09:00am 26.4 WNW 9 14 1007.6 - 17.4 - Cloudy 10 - - - -
29/08:30am 26.0 WNW 9 14 1007.5 - 17.2 - Partly cloudy 10 - - - -
29/08:00am 25.6 WNW 7 11 1007.4 - 17.0 - Partly cloudy 10 - - - -
29/07:30am 25.9 WNW 9 13 1006.9 - 16.6 - Partly cloudy 10 - - - -
29/07:00am 26.0 NW 11 17 1006.1 - 16.2 - Partly cloudy 10 - - - -
29/06:30am 26.4 NW 12 21 1005.4 - 16.0 - Partly cloudy 10 - - - -
29/06:00am 26.1 NW 12 19 1005.2 - 16.0 - Cloudy 10 - - - -
29/05:41am 26.2 WNW 12 20 1005.4 - 16.0 - Partly cloudy 10 - - - -
29/05:30am 26.1 NW 13 20 1005.5 - 16.0 - Partly cloudy 10 - - - -
29/05:16am 26.0 WNW 12 19 1005.3 - 16.0 - Partly cloudy 10 - - - -
29/05:14am 25.9 WNW 12 19 1005.3 - 16.0 - Partly cloudy 10 - - - -
29/05:02am 25.6 WNW 8 13 1005.2 - 16.0 - Partly cloudy 10 - - - -
29/05:00am 25.6 WNW 7 13 1005.2 - 16.0 - Partly cloudy 9 - - - -
29/04:30am 25.0 WNW 10 14 1004.9 - 16.0 - Partly cloudy 10 - - - -
29/04:25am 25.0 WNW 11 18 1004.9 - 16.0 - Partly cloudy 9 - - - -
29/04:10am 24.7 NW 14 26 1005.2 - 16.0 - Partly cloudy 5 - - - -
29/04:09am 24.7 NW 15 26 1005.2 - 15.8 - Partly cloudy 6 - - - -
29/04:00am 25.7 WNW 8 18 1005.2 - 15.8 - Partly cloudy 10 - - - -
29/03:48am 25.4 WNW 10 15 1004.9 - 15.8 - Partly cloudy 10 - - - -
29/03:30am 25.8 NW 13 18 1004.3 - 15.4 - Partly cloudy 4 - - - -
29/03:29am 25.7 NW 13 18 1004.3 - 15.4 - Partly cloudy 5 - - - -
29/03:09am 26.0 NW 10 14 1004.2 - 13.2 - Partly cloudy 10 - - - -
29/03:00am 25.8 NW 9 13 1004.3 - 13.2 - Cloudy 6 - - - -
29/02:35am 25.5 WNW 15 25 1004.7 - 6.4 - Partly cloudy 4 - - - -
29/02:30am 27.5 NW 10 23 1004.4 - 3.8 - Partly cloudy 10 - - - -
29/02:00am 27.0 WNW 8 11 1004.8 - 3.8 - - 10 - - - -
29/01:30am 26.5 NW 8 12 1005.3 - 3.8 - Partly cloudy 10 - - - -
29/01:00am 26.0 NW 8 12 1005.9 - 3.8 - Partly cloudy 10 - - - -
29/12:30am 25.9 NW 9 13 1006.4 - 3.6 - Partly cloudy 10 - - - -
29/12:00am 25.6 NW 12 18 1006.7 - 3.6 - Cloudy 8 - - - -
 
Date/Time
EST
Temp

°C
Wind Pressure Rain
since 9am
mm
Weather Cloud Vis
km
Sea
Height
m
Swell
Dir
 
Speed
knots
Gust
knots
hPa Trend Height
m
Period
s
Dir
28/11:30pm 26.4 WNW 11 16 1007.0 - 3.0 - Partly cloudy 10 - - - -
28/11:00pm 26.5 WNW 13 21 1007.2 - 3.0 - Partly cloudy 10 - - - -
28/10:30pm 27.4 WNW 9 14 1006.5 - 3.0 - Partly cloudy 10 - - - -
28/10:00pm 27.7 NW 11 18 1006.6 - 3.0 - Partly cloudy 10 - - - -
28/09:30pm 27.6 WNW 7 15 1006.3 - 3.0 - Partly cloudy 10 - - - -
28/09:00pm 27.4 WNW 7 9 1006.1 - 3.0 - Cloudy 10 - - - -
28/08:30pm 27.5 WNW 8 11 1006.0 - 3.0 - Partly cloudy 10 - - - -
28/08:00pm 27.3 WNW 8 12 1005.3 - 3.0 - Partly cloudy 10 - - - -
28/07:30pm 26.8 WNW 8 13 1004.7 - 3.0 - Partly cloudy 10 - - - -
28/07:01pm 26.4 WNW 6 10 1004.4 - 3.0 - Partly cloudy 10 - - - -
28/07:00pm 26.4 WNW 7 11 1004.3 - 3.0 - Partly cloudy 10 - - - -
28/06:44pm 26.5 WNW 11 17 1004.2 - 2.6 - Partly cloudy 5 - - - -
28/06:30pm 28.5 WNW 8 11 1004.0 - 1.8 - Partly cloudy 10 - - - -
28/06:00pm 28.6 WNW 8 13 1003.7 - 1.8 - Cloudy 10 - - - -
28/05:30pm 28.6 WNW 10 17 1003.4 - 1.8 - Partly cloudy 10 - - - -
28/05:00pm 28.8 WNW 11 18 1003.0 - 1.8 - Partly cloudy 10 - - - -
28/04:30pm 29.1 WNW 10 17 1002.6 - 1.8 - Partly cloudy 10 - - - -
28/04:00pm 28.6 WNW 13 22 1002.7 - 1.8 - - 10 - - - -
28/03:30pm 28.4 WNW 13 21 1002.8 - 1.8 - - 10 - - - -
28/03:00pm 28.5 WNW 14 21 1003.2 - 1.8 - Cloudy 10 - - - -
28/02:30pm 26.2 W 13 24 1003.8 - 1.8 - Partly cloudy 6 - - - -
28/02:00pm 28.8 WNW 14 21 1004.1 - 1.0 - Partly cloudy 10 - - - -
28/01:30pm 29.1 WNW 15 23 1004.3 - 1.0 - Partly cloudy 10 - - - -
28/01:00pm 29.1 WNW 13 19 1004.8 - 1.0 - Cloudy 10 - - - -
28/12:30pm 28.6 NW 14 22 1005.2 - 1.0 - Partly cloudy 10 - - - -
28/12:00pm 28.1 NW 13 18 1005.8 - 1.0 - Cloudy 10 - - - -
28/11:30am 28.1 NW 12 18 1006.2 - 1.0 - Partly cloudy 10 - - - -
28/11:27am 28.2 NW 13 19 1006.3 - 1.0 - Partly cloudy 10 - - - -
28/11:09am 27.8 NNW 14 21 1006.3 - 1.0 - Partly cloudy 10 - - - -
28/11:00am 27.7 NNW 12 20 1006.3 - 1.0 - Partly cloudy 10 - - - -

Other Formats:

Comma delimited format used in spreadsheet applications
http://www.bom.gov.au/fwo/IDQ60701/IDQ60701.94174.axf

JavaScript Object Notation format (JSON) in row-major order
http://www.bom.gov.au/fwo/IDQ60701/IDQ60701.94174.json